createdAt,value
2019-05-14T00:00:01.217Z,7.5
2019-05-14T00:10:01.429Z,7.0
2019-05-14T00:15:02.391Z,7.2
2019-05-14T00:20:09.935Z,6.8
2019-05-14T00:25:01.397Z,6.5
2019-05-14T00:30:02.718Z,6.5
2019-05-14T00:35:02.278Z,6.7
2019-05-14T00:40:01.735Z,6.4
2019-05-14T00:45:01.507Z,6.5
2019-05-14T00:50:02.463Z,7.0
2019-05-14T00:55:01.446Z,6.8
2019-05-14T01:00:01.464Z,6.1
2019-05-14T01:05:02.161Z,6.3
2019-05-14T01:10:01.643Z,6.7
2019-05-14T01:15:11.441Z,6.5
2019-05-14T01:20:03.393Z,6.7
2019-05-14T01:30:02.358Z,6.6
2019-05-14T01:35:01.642Z,6.0
2019-05-14T01:40:01.466Z,6.1
2019-05-14T01:45:02.873Z,5.9
2019-05-14T01:50:02.381Z,6.4
2019-05-14T01:55:02.394Z,6.2
2019-05-14T02:00:02.582Z,6.4
2019-05-14T02:05:02.260Z,6.4
2019-05-14T02:10:01.468Z,6.8
2019-05-14T02:15:02.173Z,6.8
2019-05-14T02:20:02.420Z,7.0
2019-05-14T02:25:06.292Z,7.2
2019-05-14T02:30:02.498Z,7.2
2019-05-14T02:35:01.163Z,7.2
2019-05-14T02:45:01.214Z,7.1
2019-05-14T02:50:01.220Z,7.2
2019-05-14T02:55:01.197Z,7.4
2019-05-14T03:00:01.192Z,7.3
2019-05-14T03:05:01.225Z,7.6
2019-05-14T03:10:06.171Z,7.8
2019-05-14T03:15:01.222Z,7.7
2019-05-14T03:20:01.159Z,8.0
2019-05-14T03:25:01.193Z,8.0
2019-05-14T03:30:01.231Z,7.4
2019-05-14T03:35:04.786Z,6.9
2019-05-14T03:40:01.199Z,7.1
2019-05-14T03:45:01.228Z,6.9
2019-05-14T03:50:01.168Z,7.1
2019-05-14T03:55:05.078Z,7.7
2019-05-14T04:00:01.241Z,8.4
2019-05-14T04:05:01.175Z,8.5
2019-05-14T04:10:01.169Z,8.4
2019-05-14T04:15:01.170Z,8.4
2019-05-14T04:25:01.176Z,8.8
2019-05-14T04:30:01.196Z,9.9
2019-05-14T04:35:01.268Z,10.8
2019-05-14T04:40:01.187Z,11.2
2019-05-14T04:45:06.112Z,10.8
2019-05-14T04:50:01.571Z,10.4
2019-05-14T04:55:01.325Z,10.2
2019-05-14T05:00:01.196Z,9.8
2019-05-14T05:05:01.201Z,9.6
2019-05-14T05:10:01.160Z,10.2
2019-05-14T05:15:01.258Z,10.8
2019-05-14T05:20:01.193Z,14.4
2019-05-14T05:25:01.258Z,14.1
2019-05-14T05:30:01.139Z,14.1
2019-05-14T05:35:01.202Z,13.6
2019-05-14T05:40:01.198Z,13.2
2019-05-14T05:45:01.174Z,9.0
2019-05-14T05:55:01.271Z,9.2
2019-05-14T06:00:01.221Z,9.2
2019-05-14T06:05:01.309Z,9.0
2019-05-14T06:10:01.257Z,8.5
2019-05-14T06:15:01.283Z,8.5
2019-05-14T06:20:01.218Z,8.2
2019-05-14T06:25:01.422Z,8.2
2019-05-14T06:30:01.218Z,8.5
2019-05-14T06:35:01.349Z,8.8
2019-05-14T06:40:01.289Z,9.1
2019-05-14T06:45:01.738Z,9.6
2019-05-14T06:50:01.223Z,9.9
2019-05-14T06:55:01.301Z,10.1
2019-05-14T07:00:01.238Z,9.7
2019-05-14T07:05:02.406Z,9.5
2019-05-14T07:10:01.225Z,9.2
2019-05-14T07:15:01.326Z,8.8
2019-05-14T07:20:01.263Z,8.7
2019-05-14T07:30:01.360Z,8.2
2019-05-14T07:35:01.234Z,7.9
2019-05-14T07:40:01.207Z,7.8
2019-05-14T07:45:01.405Z,7.4
2019-05-14T07:50:02.023Z,7.4
2019-05-14T07:55:01.312Z,7.6
2019-05-14T08:00:01.253Z,7.6
2019-05-14T08:05:01.252Z,7.8
2019-05-14T08:10:01.252Z,8.0
2019-05-14T08:15:19.615Z,8.1
2019-05-14T08:20:01.277Z,8.0
2019-05-14T08:25:01.327Z,8.0
2019-05-14T08:30:01.270Z,7.5
2019-05-14T08:35:01.399Z,7.5
2019-05-14T08:40:01.267Z,7.1
2019-05-14T08:45:10.229Z,6.9
2019-05-14T08:50:01.216Z,6.6
2019-05-14T09:00:01.470Z,6.9
2019-05-14T09:05:05.136Z,6.7
2019-05-14T09:10:01.260Z,7.4
2019-05-14T09:15:01.393Z,7.3
2019-05-14T09:20:08.455Z,7.0
2019-05-14T09:25:01.390Z,6.9
2019-05-14T09:30:01.302Z,7.6
2019-05-14T09:35:01.332Z,6.8
2019-05-14T09:40:01.322Z,6.9
2019-05-14T09:45:01.335Z,6.9
2019-05-14T09:50:20.058Z,6.4
2019-05-14T09:55:01.385Z,5.4
2019-05-14T10:00:01.283Z,5.3
2019-05-14T10:05:01.347Z,4.8
2019-05-14T10:10:01.339Z,4.5
2019-05-14T10:15:01.333Z,4.3
2019-05-14T10:20:01.302Z,4.4
2019-05-14T10:25:01.395Z,4.2
2019-05-14T10:30:01.270Z,4.3
2019-05-14T10:36:01.453Z,4.0
2019-05-14T10:51:03.914Z,4.0
2019-05-14T10:56:01.325Z,3.8
2019-05-14T11:01:01.260Z,4.0
2019-05-14T11:11:04.446Z,3.9
2019-05-14T11:16:01.345Z,4.0
2019-05-14T11:26:01.323Z,4.0
2019-05-14T11:31:01.238Z,4.1
2019-05-14T11:36:01.399Z,4.0
2019-05-14T11:41:01.279Z,3.8
2019-05-14T11:46:01.334Z,3.8
2019-05-14T11:57:01.325Z,3.6
2019-05-14T12:02:01.258Z,3.8
2019-05-14T12:12:01.334Z,4.0
2019-05-14T12:17:01.387Z,4.4
2019-05-14T12:22:11.421Z,4.8
2019-05-14T12:27:01.333Z,5.0
2019-05-14T12:32:01.273Z,5.2
2019-05-14T12:42:01.381Z,4.8
2019-05-14T12:47:01.316Z,4.6
2019-05-14T13:02:01.324Z,4.8
2019-05-14T13:07:01.331Z,5.0
2019-05-14T13:12:01.323Z,5.1
2019-05-14T13:17:01.331Z,4.9
2019-05-14T13:22:17.821Z,4.7
2019-05-14T13:27:01.214Z,4.4
2019-05-14T13:32:01.278Z,4.2
2019-05-14T13:37:01.262Z,3.9
2019-05-14T13:52:01.384Z,4.2
2019-05-14T14:02:01.352Z,4.4
2019-05-14T14:07:01.257Z,4.7
2019-05-14T14:12:01.265Z,5.0
2019-05-14T14:17:01.260Z,5.0
2019-05-14T14:22:01.282Z,5.0
2019-05-14T14:27:01.267Z,4.8
2019-05-14T14:32:01.264Z,4.8
2019-05-14T14:37:01.394Z,4.3
2019-05-14T14:42:01.262Z,4.2
2019-05-14T14:52:01.278Z,4.3
2019-05-14T14:57:01.258Z,4.3
2019-05-14T15:02:01.283Z,4.4
2019-05-14T15:07:01.383Z,4.2
2019-05-14T15:17:01.444Z,4.4
2019-05-14T15:22:01.255Z,4.2
2019-05-14T15:27:14.973Z,4.4
2019-05-14T15:32:01.251Z,4.3
2019-05-14T15:42:06.788Z,4.4
2019-05-14T15:47:01.227Z,4.6
2019-05-14T15:52:01.239Z,4.6
2019-05-14T15:57:01.388Z,4.9
2019-05-14T16:02:01.243Z,5.1
2019-05-14T16:07:01.314Z,5.2
2019-05-14T16:12:01.248Z,5.2
2019-05-14T16:17:01.213Z,5.5
2019-05-14T16:22:01.255Z,5.7
2019-05-14T16:27:01.270Z,5.5
2019-05-14T16:37:01.253Z,5.5
2019-05-14T16:42:01.264Z,5.2
2019-05-14T16:47:01.266Z,5.0
2019-05-14T16:52:01.254Z,5.4
2019-05-14T16:57:01.307Z,5.4
2019-05-14T17:02:01.252Z,5.4
2019-05-14T17:17:01.279Z,5.0
2019-05-14T17:27:01.213Z,4.7
2019-05-14T17:32:01.235Z,4.7
2019-05-14T17:37:09.234Z,4.5
2019-05-14T17:42:12.014Z,4.5
2019-05-14T17:47:01.217Z,4.4
2019-05-14T17:57:01.264Z,4.2
2019-05-14T18:02:01.265Z,4.4
2019-05-14T18:07:01.345Z,4.2
2019-05-14T18:12:01.265Z,4.4
2019-05-14T18:17:01.265Z,4.2
2019-05-14T18:22:01.264Z,4.1
2019-05-14T18:27:01.265Z,4.2
2019-05-14T18:32:02.117Z,4.6
2019-05-14T18:42:01.381Z,5.0
2019-05-14T18:47:01.255Z,5.3
2019-05-14T18:52:01.255Z,5.5
2019-05-14T18:57:01.260Z,4.9
2019-05-14T19:02:08.898Z,4.5
2019-05-14T19:07:01.290Z,4.0
2019-05-14T19:12:01.303Z,3.6
2019-05-14T19:17:02.224Z,3.3
2019-05-14T19:22:01.278Z,4.3
2019-05-14T19:27:01.381Z,5.1
2019-05-14T19:32:01.259Z,5.4
2019-05-14T19:37:01.321Z,5.9
2019-05-14T19:42:01.253Z,6.4
2019-05-14T19:47:01.341Z,6.0
2019-05-14T19:52:01.228Z,5.6
2019-05-14T20:02:01.443Z,5.5
2019-05-14T20:07:01.459Z,4.9
2019-05-14T20:12:01.248Z,4.7
2019-05-14T20:17:01.329Z,4.3
2019-05-14T20:22:01.252Z,4.4
2019-05-14T20:27:12.083Z,4.1
2019-05-14T20:37:01.387Z,4.5
2019-05-14T20:42:01.297Z,4.9
2019-05-14T20:47:01.329Z,4.8
2019-05-14T20:57:01.318Z,5.1
2019-05-14T21:02:01.253Z,4.8
2019-05-14T21:17:01.377Z,6.0
2019-05-14T21:22:01.446Z,6.4
2019-05-14T21:27:01.321Z,7.4
2019-05-14T21:32:08.183Z,8.1
2019-05-14T21:37:02.385Z,8.4
2019-05-14T21:42:01.270Z,7.8
2019-05-14T21:47:01.391Z,7.3
2019-05-14T21:52:01.265Z,6.6
2019-05-14T21:57:01.377Z,6.0
2019-05-14T22:02:01.219Z,5.7
2019-05-14T22:07:01.327Z,5.8
2019-05-14T22:12:01.254Z,5.8
2019-05-14T22:17:01.320Z,5.7
2019-05-14T22:22:01.229Z,5.7
2019-05-14T22:27:01.388Z,5.9
2019-05-14T22:38:01.324Z,5.8
2019-05-14T22:43:01.251Z,5.8
2019-05-14T22:48:01.260Z,6.0
2019-05-14T22:53:01.386Z,5.8
2019-05-14T22:58:02.324Z,5.8
2019-05-14T23:03:01.323Z,5.4
2019-05-14T23:08:01.269Z,5.7
2019-05-14T23:13:01.258Z,5.9
2019-05-14T23:18:08.775Z,6.3
2019-05-14T23:23:01.262Z,6.0
2019-05-14T23:28:01.300Z,6.2
2019-05-14T23:33:01.299Z,6.4
2019-05-14T23:43:01.290Z,6.1
2019-05-14T23:48:01.256Z,6.5
2019-05-14T23:53:01.392Z,6.7
2019-05-14T23:58:01.266Z,7.2
